Main page
METAR-TAF:

METAR-TAF

Airports :

Henri Coandă International Airport

Bucharest, Romania

latitude: 44-33N, longitude: 026-06E, elevation: 95 m

Current weather observation

The report was made 32 minutes ago, at 06:30 UTC
Wind 6 kt from the East
Temperature 25°C
Humidity 57%
Pressure 1016 hPa
Visibility 10 km or more
no clouds below 1500 m and no cumulonimbus

METAR: LROP 190630Z 08006KT CAVOK 25/16 Q1016 NOSIG

Time: 10:02 (07:02 UTC)

Forecast

The report was made 2 hours and 2 minutes ago, at 05:00 UTC
Forecast valid from 19 at 06 UTC to 20 at 06 UTC
Wind 4 kt from variable directions
Visibility 10 km or more
no clouds below 1500 m and no cumulonimbus
Becoming
from 19 at 06 UTC to 19 at 08 UTC
Wind 10 kt from the Northeast

TAF: LROP 190500Z 1906/2006 VRB04KT CAVOK BECMG 1906/1908 04010KT

Weather observations and forecasts of more than 4000 airports (METAR and TAF reports).

The available stations are represented by yellow and red dots on the map.

Hover mouse over dot to see the name of the station.

Then click to see weather observations and forecasts.

To change the map : click on the green buttons with a black cross to zoom in, on the green button with a dash to zoom out, or on the green arrows for adjacent maps.


METAR-TAF: